createdAt,value
2022-10-22T00:01:04.661Z,10.98
2022-10-22T00:03:38.476Z,12.35
2022-10-22T00:06:06.472Z,10.10
2022-10-22T00:08:33.817Z,10.20
2022-10-22T00:11:12.513Z,10.20
2022-10-22T00:13:40.721Z,9.93
2022-10-22T00:16:08.649Z,10.55
2022-10-22T00:18:36.403Z,10.98
2022-10-22T00:21:04.874Z,10.55
2022-10-22T00:23:32.731Z,11.65
2022-10-22T00:26:02.277Z,10.63
2022-10-22T00:28:30.551Z,10.73
2022-10-22T00:31:03.859Z,10.90
2022-10-22T00:33:35.229Z,10.68
2022-10-22T00:36:02.746Z,11.95
2022-10-22T00:38:30.173Z,12.05
2022-10-22T00:40:57.725Z,10.60
2022-10-22T00:43:25.221Z,11.10
2022-10-22T00:45:54.021Z,11.07
2022-10-22T00:48:28.286Z,10.45
2022-10-22T00:51:06.538Z,10.32
2022-10-22T00:53:39.929Z,10.45
2022-10-22T00:56:09.159Z,10.63
2022-10-22T00:58:44.080Z,10.18
2022-10-22T01:01:21.845Z,11.40
2022-10-22T01:03:53.797Z,10.23
2022-10-22T01:06:36.837Z,11.10
2022-10-22T01:09:17.044Z,11.00
2022-10-22T01:12:05.333Z,10.65
2022-10-22T01:15:30.309Z,14.38
2022-10-22T01:18:16.066Z,11.80
2022-10-22T01:21:12.053Z,10.50
2022-10-22T01:24:10.539Z,10.55
2022-10-22T01:26:59.805Z,10.05
2022-10-22T01:29:50.820Z,9.75
2022-10-22T01:32:22.226Z,9.18
2022-10-22T01:34:54.865Z,9.25
2022-10-22T01:37:26.137Z,10.75
2022-10-22T01:39:54.477Z,10.45
2022-10-22T01:42:22.240Z,12.55
2022-10-22T01:44:53.581Z,10.60
2022-10-22T01:47:50.577Z,11.07
2022-10-22T01:50:50.052Z,11.45
2022-10-22T01:53:32.959Z,9.82
2022-10-22T01:56:25.077Z,11.70
2022-10-22T01:59:08.434Z,10.55
2022-10-22T02:02:08.950Z,9.93
2022-10-22T02:04:46.365Z,11.02
2022-10-22T02:07:19.242Z,10.27
2022-10-22T02:09:47.296Z,11.70
2022-10-22T02:12:17.895Z,11.20
2022-10-22T02:14:46.870Z,10.73
2022-10-22T02:17:20.129Z,10.70
2022-10-22T02:20:19.686Z,11.27
2022-10-22T02:22:47.691Z,13.40
2022-10-22T02:25:15.210Z,12.43
2022-10-22T02:28:02.900Z,12.48
2022-10-22T02:30:33.123Z,12.98
2022-10-22T02:33:20.765Z,14.88
2022-10-22T02:35:49.848Z,13.55
2022-10-22T02:38:19.082Z,11.13
2022-10-22T02:40:47.040Z,12.63
2022-10-22T02:43:15.153Z,12.07
2022-10-22T02:45:42.353Z,11.98
2022-10-22T02:48:09.851Z,11.68
2022-10-22T02:50:37.224Z,12.30
2022-10-22T02:53:05.003Z,11.85
2022-10-22T02:55:32.256Z,15.07
2022-10-22T02:57:59.760Z,11.98
2022-10-22T03:00:28.374Z,13.63
2022-10-22T03:02:56.089Z,12.07
2022-10-22T03:05:23.296Z,11.80
2022-10-22T03:07:50.784Z,12.05
2022-10-22T03:10:18.046Z,12.05
2022-10-22T03:12:45.474Z,12.43
2022-10-22T03:15:12.724Z,11.98
2022-10-22T03:17:40.489Z,12.30
2022-10-22T03:20:08.718Z,12.07
2022-10-22T03:22:44.296Z,11.75
2022-10-22T03:25:36.568Z,11.27
2022-10-22T03:28:06.893Z,12.35
2022-10-22T03:30:34.184Z,13.45
2022-10-22T03:33:02.096Z,13.55
2022-10-22T03:35:29.585Z,10.38
2022-10-22T03:38:00.770Z,11.40
2022-10-22T03:40:28.206Z,13.23
2022-10-22T03:43:14.849Z,11.70
2022-10-22T03:45:42.013Z,11.00
2022-10-22T03:48:09.483Z,12.13
2022-10-22T03:50:36.712Z,12.15
2022-10-22T03:53:04.895Z,10.30
2022-10-22T03:55:32.119Z,11.25
2022-10-22T03:57:59.575Z,11.95
2022-10-22T04:00:27.106Z,12.00
2022-10-22T04:02:57.343Z,12.77
2022-10-22T04:05:24.636Z,10.57
2022-10-22T04:07:52.353Z,11.30
2022-10-22T04:10:19.623Z,10.95
2022-10-22T04:12:50.326Z,12.15
2022-10-22T04:15:17.680Z,10.65
2022-10-22T04:17:45.166Z,10.82
2022-10-22T04:20:12.780Z,11.10
2022-10-22T04:22:41.263Z,11.52
2022-10-22T04:25:10.762Z,17.05
2022-10-22T04:27:43.767Z,11.95
2022-10-22T04:30:26.072Z,11.25
2022-10-22T04:33:05.405Z,10.73
2022-10-22T04:35:38.825Z,11.00
2022-10-22T04:38:06.278Z,12.40
2022-10-22T04:40:33.827Z,12.02
2022-10-22T04:43:01.434Z,11.95
2022-10-22T04:45:28.684Z,12.40
2022-10-22T04:47:56.817Z,11.38
2022-10-22T04:50:42.816Z,12.65
2022-10-22T04:53:10.353Z,12.02
2022-10-22T04:55:37.564Z,12.07
2022-10-22T04:58:05.297Z,12.50
2022-10-22T05:00:32.800Z,11.07
2022-10-22T05:03:00.674Z,13.50
2022-10-22T05:05:28.874Z,13.15
2022-10-22T05:08:13.854Z,11.77
2022-10-22T05:10:42.771Z,12.20
2022-10-22T05:13:16.171Z,12.45
2022-10-22T05:16:14.657Z,10.65
2022-10-22T05:18:46.935Z,14.68
2022-10-22T05:21:18.170Z,12.68
2022-10-22T05:23:48.379Z,11.77
2022-10-22T05:26:18.854Z,13.30
2022-10-22T05:28:48.527Z,11.60
2022-10-22T05:31:17.871Z,12.77
2022-10-22T05:33:46.122Z,13.45
2022-10-22T05:36:16.295Z,12.10
2022-10-22T05:38:44.033Z,11.75
2022-10-22T05:41:17.188Z,12.02
2022-10-22T05:43:45.329Z,12.63
2022-10-22T05:46:22.014Z,11.50
2022-10-22T05:48:59.269Z,11.55
2022-10-22T05:51:30.978Z,12.50
2022-10-22T05:54:01.210Z,16.90
2022-10-22T05:56:30.090Z,15.85
2022-10-22T05:58:57.874Z,18.33
2022-10-22T06:01:28.161Z,19.77
2022-10-22T06:03:58.588Z,19.42
2022-10-22T06:06:46.808Z,18.58
2022-10-22T06:09:22.456Z,18.80
2022-10-22T06:11:50.997Z,18.20
2022-10-22T06:14:20.337Z,22.80
2022-10-22T06:16:48.404Z,29.60
2022-10-22T06:19:18.505Z,14.73
2022-10-22T06:21:47.574Z,13.27
2022-10-22T06:24:19.705Z,12.57
2022-10-22T06:26:52.749Z,13.93
2022-10-22T06:29:20.440Z,13.50
2022-10-22T06:31:48.030Z,19.40
2022-10-22T06:34:18.966Z,24.75
2022-10-22T06:36:47.132Z,12.27
2022-10-22T06:39:17.559Z,11.88
2022-10-22T06:41:45.269Z,13.57
2022-10-22T06:44:18.223Z,15.10
2022-10-22T06:46:46.029Z,17.63
2022-10-22T06:49:15.215Z,26.08
2022-10-22T06:51:42.693Z,21.15
2022-10-22T06:54:10.891Z,25.75
2022-10-22T06:56:38.229Z,18.98
2022-10-22T06:59:05.755Z,14.35
2022-10-22T07:01:35.375Z,14.57
2022-10-22T07:04:04.328Z,16.35
2022-10-22T07:06:31.626Z,18.55
2022-10-22T07:09:00.075Z,15.80
2022-10-22T07:11:30.268Z,17.42
2022-10-22T07:13:59.601Z,17.08
2022-10-22T07:16:31.120Z,15.82
2022-10-22T07:19:04.753Z,15.13
2022-10-22T07:21:32.315Z,18.85
2022-10-22T07:24:00.410Z,14.02
2022-10-22T07:26:30.964Z,14.30
2022-10-22T07:29:02.490Z,14.13
2022-10-22T07:31:30.030Z,20.75
2022-10-22T07:33:58.435Z,20.45
2022-10-22T07:36:25.741Z,16.77
2022-10-22T07:38:58.252Z,13.95
2022-10-22T07:41:27.530Z,12.95
2022-10-22T07:43:56.057Z,13.50
2022-10-22T07:46:24.138Z,11.40
2022-10-22T07:48:51.992Z,11.95
2022-10-22T07:51:19.254Z,16.48
2022-10-22T07:53:46.808Z,19.05
2022-10-22T07:56:14.184Z,14.35
2022-10-22T07:58:41.710Z,13.40
2022-10-22T08:01:09.047Z,13.80
2022-10-22T08:03:36.897Z,14.25
2022-10-22T08:06:04.357Z,11.77
2022-10-22T08:08:32.424Z,11.68
2022-10-22T08:11:00.906Z,11.07
2022-10-22T08:13:30.774Z,11.77
2022-10-22T08:16:01.824Z,11.02
2022-10-22T08:18:29.808Z,12.85
2022-10-22T08:20:57.561Z,10.98
2022-10-22T08:23:26.206Z,11.02
2022-10-22T08:25:57.043Z,13.73
2022-10-22T08:28:24.908Z,13.35
2022-10-22T08:30:52.185Z,13.60
2022-10-22T08:33:19.800Z,11.45
2022-10-22T08:35:51.805Z,14.05
2022-10-22T08:38:19.907Z,12.95
2022-10-22T08:41:06.334Z,11.93
2022-10-22T08:43:42.104Z,10.60
2022-10-22T08:46:42.910Z,11.00
2022-10-22T08:49:20.669Z,12.75
2022-10-22T08:51:48.161Z,12.85
2022-10-22T08:54:44.658Z,11.32
2022-10-22T08:57:39.460Z,14.35
2022-10-22T09:02:48.677Z,10.77
2022-10-22T09:05:54.196Z,12.17
2022-10-22T09:08:22.119Z,11.43
2022-10-22T09:10:56.028Z,13.50
2022-10-22T09:13:24.236Z,20.45
2022-10-22T09:15:56.313Z,11.98
2022-10-22T09:18:30.018Z,12.13
2022-10-22T09:21:04.279Z,13.15
2022-10-22T09:23:39.971Z,12.43
2022-10-22T09:26:15.735Z,15.27
2022-10-22T09:28:44.115Z,20.95
2022-10-22T09:31:13.779Z,13.20
2022-10-22T09:33:42.985Z,20.92
2022-10-22T09:36:18.712Z,14.68
2022-10-22T09:38:52.503Z,13.85
2022-10-22T09:41:26.304Z,14.63
2022-10-22T09:43:57.042Z,13.73
2022-10-22T09:46:31.667Z,14.75
2022-10-22T09:49:11.086Z,17.40
2022-10-22T09:51:51.995Z,22.35
2022-10-22T09:54:24.424Z,21.23
2022-10-22T09:56:57.804Z,27.25
2022-10-22T09:59:29.132Z,30.77
2022-10-22T10:02:08.511Z,22.88
2022-10-22T10:04:53.043Z,21.48
2022-10-22T10:07:23.647Z,17.42
2022-10-22T10:09:52.474Z,18.77
2022-10-22T10:13:05.544Z,20.33
2022-10-22T10:15:55.733Z,14.32
2022-10-22T10:19:19.725Z,15.15
2022-10-22T10:22:12.297Z,13.73
2022-10-22T10:24:48.358Z,13.75
2022-10-22T10:27:20.939Z,13.80
2022-10-22T10:30:16.074Z,12.98
2022-10-22T10:33:01.758Z,12.48
2022-10-22T10:35:37.118Z,14.20
2022-10-22T10:38:40.583Z,12.20
2022-10-22T10:41:17.977Z,12.32
2022-10-22T10:43:51.857Z,12.68
2022-10-22T10:46:48.720Z,13.05
2022-10-22T10:49:33.198Z,13.75
2022-10-22T10:55:23.117Z,16.77
2022-10-22T10:58:40.186Z,15.55
2022-10-22T11:01:42.094Z,15.25
2022-10-22T11:04:47.215Z,16.38
2022-10-22T11:07:34.325Z,15.00
2022-10-22T11:10:32.534Z,18.55
2022-10-22T11:13:08.995Z,24.45
2022-10-22T11:15:39.416Z,20.33
2022-10-22T11:18:18.493Z,23.85
2022-10-22T11:21:17.657Z,19.25
2022-10-22T11:23:46.899Z,17.35
2022-10-22T11:26:46.470Z,15.05
2022-10-22T11:29:23.026Z,18.48
2022-10-22T11:31:53.416Z,20.30
2022-10-22T11:34:44.694Z,29.77
2022-10-22T11:37:14.612Z,21.02
2022-10-22T11:39:51.392Z,15.45
2022-10-22T11:42:30.342Z,16.98
2022-10-22T11:45:29.551Z,13.15
2022-10-22T11:47:57.108Z,15.65
2022-10-22T11:50:47.100Z,19.55
2022-10-22T11:53:14.556Z,18.60
2022-10-22T11:55:55.610Z,15.60
2022-10-22T11:58:38.418Z,14.77
2022-10-22T12:01:08.391Z,17.10
2022-10-22T12:03:38.017Z,17.17
2022-10-22T12:06:05.267Z,16.88
2022-10-22T12:08:34.255Z,22.83
2022-10-22T12:11:41.760Z,14.68
2022-10-22T12:14:28.178Z,14.52
2022-10-22T12:17:14.289Z,19.15
2022-10-22T12:19:45.168Z,19.60
2022-10-22T12:22:31.989Z,16.17
2022-10-22T12:25:10.770Z,27.10
2022-10-22T12:27:42.016Z,15.70
2022-10-22T12:30:37.026Z,16.77
2022-10-22T12:33:28.425Z,16.38
2022-10-22T12:36:07.770Z,15.88
2022-10-22T12:38:49.945Z,14.73
2022-10-22T12:41:18.719Z,16.67
2022-10-22T12:43:46.267Z,15.82
2022-10-22T12:46:16.503Z,24.88
2022-10-22T12:48:45.927Z,18.10
2022-10-22T12:51:18.340Z,17.17
2022-10-22T12:53:53.412Z,16.25
2022-10-22T12:56:32.415Z,17.75
2022-10-22T12:59:39.409Z,14.77
2022-10-22T13:02:31.333Z,16.75
2022-10-22T13:05:31.432Z,20.02
2022-10-22T13:10:55.026Z,17.38
2022-10-22T13:13:35.954Z,16.48
2022-10-22T13:16:14.410Z,15.43
2022-10-22T13:18:42.841Z,17.05
2022-10-22T13:21:24.298Z,16.40
2022-10-22T13:24:00.252Z,19.40
2022-10-22T13:26:33.677Z,17.95
2022-10-22T13:29:02.990Z,17.05
2022-10-22T13:31:33.651Z,17.52
2022-10-22T13:34:09.826Z,18.52
2022-10-22T13:36:39.453Z,16.38
2022-10-22T13:39:09.001Z,18.48
2022-10-22T13:44:08.368Z,27.52
2022-10-22T13:46:44.845Z,16.92
2022-10-22T13:49:23.524Z,28.80
2022-10-22T13:51:51.940Z,17.20
2022-10-22T13:54:24.595Z,27.85
2022-10-22T13:56:53.742Z,41.38
2022-10-22T13:59:22.993Z,22.48
2022-10-22T14:01:52.766Z,22.40
2022-10-22T14:04:20.396Z,20.40
2022-10-22T14:06:47.962Z,18.65
2022-10-22T14:09:20.706Z,21.38
2022-10-22T14:11:53.423Z,24.83
2022-10-22T14:14:41.339Z,24.35
2022-10-22T14:17:22.291Z,23.08
2022-10-22T14:20:46.295Z,21.85
2022-10-22T14:23:24.722Z,21.88
2022-10-22T14:25:52.443Z,22.63
2022-10-22T14:28:20.355Z,24.17
2022-10-22T14:30:48.239Z,23.67
2022-10-22T14:33:28.952Z,24.67
2022-10-22T14:36:00.642Z,23.23
2022-10-22T14:38:29.209Z,21.33
2022-10-22T14:41:05.639Z,21.90
2022-10-22T14:44:29.264Z,28.83
2022-10-22T14:47:36.229Z,23.40
2022-10-22T14:54:03.225Z,27.05
2022-10-22T14:56:30.633Z,26.60
2022-10-22T14:58:58.180Z,38.10
2022-10-22T15:01:25.530Z,23.73
2022-10-22T15:03:55.466Z,23.85
2022-10-22T15:06:32.650Z,33.45
2022-10-22T15:09:03.565Z,25.05
2022-10-22T15:11:35.997Z,24.42
2022-10-22T15:14:05.264Z,24.08
2022-10-22T15:16:32.492Z,30.50
2022-10-22T15:19:00.998Z,30.08
2022-10-22T15:21:28.692Z,28.55
2022-10-22T15:23:56.426Z,30.10
2022-10-22T15:26:26.012Z,29.92
2022-10-22T15:29:29.112Z,43.63
2022-10-22T15:35:54.556Z,182.55
2022-10-22T15:38:39.008Z,215.63
2022-10-22T15:41:10.397Z,183.77
2022-10-22T15:43:38.387Z,65.18
2022-10-22T15:46:11.969Z,95.15
2022-10-22T15:48:39.959Z,55.65
2022-10-22T15:51:15.516Z,52.95
2022-10-22T15:53:43.494Z,93.82
2022-10-22T15:56:12.152Z,106.03
2022-10-22T15:58:40.067Z,85.20
2022-10-22T16:01:11.265Z,70.65
2022-10-22T16:03:39.423Z,58.05
2022-10-22T16:06:09.233Z,77.43
2022-10-22T16:08:38.357Z,50.15
2022-10-22T16:11:08.727Z,44.03
2022-10-22T16:13:37.441Z,42.47
2022-10-22T16:16:07.120Z,49.83
2022-10-22T16:18:34.602Z,100.55
2022-10-22T16:21:01.932Z,62.90
2022-10-22T16:23:29.840Z,90.65
2022-10-22T16:26:15.368Z,71.45
2022-10-22T16:28:59.272Z,44.78
2022-10-22T16:31:35.403Z,61.45
2022-10-22T16:34:18.526Z,52.57
2022-10-22T16:37:39.329Z,48.28
2022-10-22T16:40:58.060Z,90.43
2022-10-22T16:44:50.180Z,51.20
2022-10-22T16:48:00.206Z,43.58
2022-10-22T16:50:41.744Z,71.68
2022-10-22T16:56:11.830Z,41.63
2022-10-22T16:58:43.701Z,49.53
2022-10-22T17:01:13.387Z,59.47
2022-10-22T17:03:42.618Z,48.00
2022-10-22T17:06:11.946Z,47.83
2022-10-22T17:08:41.156Z,50.03
2022-10-22T17:11:13.595Z,61.65
2022-10-22T17:13:42.015Z,50.17
2022-10-22T17:16:12.630Z,41.50
2022-10-22T17:18:41.388Z,36.72
2022-10-22T17:21:10.918Z,43.33
2022-10-22T17:23:40.123Z,44.85
2022-10-22T17:26:44.530Z,39.10
2022-10-22T17:29:52.815Z,29.52
2022-10-22T17:32:57.292Z,30.83
2022-10-22T17:36:33.213Z,45.22
2022-10-22T17:39:39.937Z,38.05
2022-10-22T17:42:09.220Z,38.35
2022-10-22T17:44:37.698Z,35.75
2022-10-22T17:47:06.300Z,33.50
2022-10-22T17:49:33.587Z,32.92
2022-10-22T17:54:33.963Z,34.60
2022-10-22T17:57:11.094Z,43.88
2022-10-22T17:59:41.372Z,39.80
2022-10-22T18:02:17.386Z,61.05
2022-10-22T18:05:11.913Z,39.15
2022-10-22T18:07:49.580Z,39.70
2022-10-22T18:10:24.982Z,46.72
2022-10-22T18:12:55.650Z,28.88
2022-10-22T18:15:58.606Z,47.33
2022-10-22T18:19:04.690Z,57.50
2022-10-22T18:22:04.905Z,32.28
2022-10-22T18:24:36.818Z,27.35
2022-10-22T18:27:04.249Z,49.28
2022-10-22T18:29:31.855Z,43.08
2022-10-22T18:32:00.152Z,44.03
2022-10-22T18:34:31.172Z,28.90
2022-10-22T18:36:58.690Z,31.10
2022-10-22T18:39:26.254Z,35.67
2022-10-22T18:41:55.491Z,52.22
2022-10-22T18:45:29.449Z,31.95
2022-10-22T18:49:03.236Z,26.52
2022-10-22T18:51:32.941Z,23.60
2022-10-22T18:54:32.655Z,25.00
2022-10-22T18:57:02.875Z,37.53
2022-10-22T18:59:31.745Z,58.05
2022-10-22T19:01:59.806Z,73.88
2022-10-22T19:04:34.246Z,50.30
2022-10-22T19:07:01.976Z,49.13
2022-10-22T19:09:29.265Z,27.25
2022-10-22T19:11:56.916Z,27.75
2022-10-22T19:14:24.233Z,40.47
2022-10-22T19:16:52.037Z,41.70
2022-10-22T19:19:22.479Z,34.80
2022-10-22T19:21:51.330Z,32.13
2022-10-22T19:24:20.379Z,47.63
2022-10-22T19:26:59.692Z,45.78
2022-10-22T19:29:32.296Z,46.08
2022-10-22T19:32:59.327Z,47.20
2022-10-22T19:37:06.946Z,50.78
2022-10-22T19:42:56.745Z,51.85
2022-10-22T19:45:26.574Z,36.30
2022-10-22T19:47:54.843Z,37.40
2022-10-22T19:50:22.827Z,35.25
2022-10-22T19:52:51.343Z,32.72
2022-10-22T19:55:18.969Z,48.63
2022-10-22T19:57:53.716Z,38.63
2022-10-22T20:01:39.541Z,31.58
2022-10-22T20:04:15.274Z,29.13
2022-10-22T20:06:45.614Z,19.58
2022-10-22T20:09:26.373Z,22.40
2022-10-22T20:11:54.032Z,12.50
2022-10-22T20:14:21.689Z,13.82
2022-10-22T20:16:49.176Z,11.27
2022-10-22T20:19:17.412Z,7.50
2022-10-22T20:21:46.066Z,8.43
2022-10-22T20:24:14.453Z,7.43
2022-10-22T20:26:44.952Z,6.70
2022-10-22T20:29:26.383Z,10.02
2022-10-22T20:32:28.374Z,7.18
2022-10-22T20:35:22.814Z,6.07
2022-10-22T20:37:54.255Z,5.60
2022-10-22T20:40:34.072Z,7.00
2022-10-22T20:43:04.673Z,13.27
2022-10-22T20:46:03.971Z,6.18
2022-10-22T20:48:38.684Z,7.28
2022-10-22T20:51:10.289Z,6.45
2022-10-22T20:53:40.910Z,5.60
2022-10-22T20:56:15.432Z,6.00
2022-10-22T20:58:48.084Z,8.90
2022-10-22T21:01:23.985Z,6.40
2022-10-22T21:03:53.007Z,11.13
2022-10-22T21:06:23.332Z,6.38
2022-10-22T21:08:52.251Z,5.68
2022-10-22T21:11:20.939Z,6.18
2022-10-22T21:13:48.732Z,6.07
2022-10-22T21:16:18.764Z,5.55
2022-10-22T21:18:49.558Z,4.70
2022-10-22T21:21:17.802Z,9.43
2022-10-22T21:23:45.625Z,6.97
2022-10-22T21:26:13.087Z,11.88
2022-10-22T21:28:42.070Z,5.68
2022-10-22T21:31:21.128Z,6.18
2022-10-22T21:34:17.850Z,4.93
2022-10-22T21:36:53.398Z,5.88
2022-10-22T21:39:26.536Z,7.28
2022-10-22T21:41:57.494Z,6.25
2022-10-22T21:44:25.222Z,5.55
2022-10-22T21:46:52.508Z,6.05
2022-10-22T21:49:20.042Z,6.53
2022-10-22T21:51:47.306Z,6.80
2022-10-22T21:54:14.881Z,7.20
2022-10-22T21:56:43.804Z,4.70
2022-10-22T21:59:11.352Z,4.85
2022-10-22T22:01:39.024Z,4.78
2022-10-22T22:04:18.624Z,4.65
2022-10-22T22:06:46.101Z,4.30
2022-10-22T22:09:21.032Z,3.97
2022-10-22T22:11:51.830Z,4.05
2022-10-22T22:14:21.064Z,6.47
2022-10-22T22:16:48.313Z,4.40
2022-10-22T22:19:15.819Z,3.70
2022-10-22T22:21:43.131Z,4.65
2022-10-22T22:24:12.968Z,3.90
2022-10-22T22:26:41.026Z,4.35
2022-10-22T22:29:15.319Z,4.28
2022-10-22T22:32:49.148Z,3.08
2022-10-22T22:35:32.177Z,3.30
2022-10-22T22:38:03.441Z,3.15
2022-10-22T22:40:39.210Z,3.40
2022-10-22T22:43:11.644Z,4.20
2022-10-22T22:45:40.894Z,4.38
2022-10-22T22:48:08.282Z,6.82
2022-10-22T22:50:36.774Z,9.70
2022-10-22T22:53:04.013Z,4.65
2022-10-22T22:55:32.091Z,4.80
2022-10-22T22:57:59.409Z,4.65
2022-10-22T23:00:27.174Z,5.85
2022-10-22T23:02:55.920Z,5.13
2022-10-22T23:05:23.400Z,5.25
2022-10-22T23:07:50.633Z,4.78
2022-10-22T23:10:18.060Z,5.07
2022-10-22T23:12:45.494Z,4.32
2022-10-22T23:15:12.991Z,4.75
2022-10-22T23:17:40.256Z,4.45
2022-10-22T23:20:08.961Z,5.25
2022-10-22T23:22:36.542Z,5.00
2022-10-22T23:25:04.193Z,4.88
2022-10-22T23:27:31.415Z,5.85
2022-10-22T23:29:58.863Z,5.25
2022-10-22T23:32:26.140Z,5.13
2022-10-22T23:34:53.640Z,4.88
2022-10-22T23:37:20.973Z,4.97
2022-10-22T23:39:48.526Z,6.10
2022-10-22T23:42:15.767Z,5.47
2022-10-22T23:44:43.565Z,6.30
2022-10-22T23:47:11.011Z,6.03
2022-10-22T23:49:38.446Z,5.70
2022-10-22T23:52:05.690Z,5.93
2022-10-22T23:54:34.417Z,5.63
2022-10-22T23:57:01.665Z,5.65
2022-10-22T23:59:29.122Z,5.97
